createdAt,value
2019-05-16T00:03:51.518Z,2.98
2019-05-16T00:08:58.579Z,2.98
2019-05-16T00:14:05.337Z,3.10
2019-05-16T00:19:11.928Z,3.27
2019-05-16T00:24:18.742Z,2.95
2019-05-16T00:29:27.729Z,3.08
2019-05-16T00:34:34.347Z,3.37
2019-05-16T00:39:41.179Z,3.02
2019-05-16T00:44:47.993Z,2.40
2019-05-16T00:49:54.670Z,2.62
2019-05-16T00:55:01.200Z,2.47
2019-05-16T01:00:09.808Z,1.85
2019-05-16T01:05:18.930Z,1.75
2019-05-16T01:10:24.845Z,2.27
2019-05-16T01:15:31.455Z,2.05
2019-05-16T01:20:38.644Z,2.40
2019-05-16T01:25:45.518Z,2.30
2019-05-16T01:30:52.116Z,2.08
2019-05-16T01:35:58.720Z,2.30
2019-05-16T01:41:08.612Z,2.58
2019-05-16T01:46:14.496Z,2.50
2019-05-16T01:51:21.125Z,2.50
2019-05-16T01:56:28.113Z,2.12
2019-05-16T02:01:34.669Z,2.08
2019-05-16T02:06:52.936Z,2.10
2019-05-16T02:11:49.540Z,2.37
2019-05-16T02:16:58.056Z,2.50
2019-05-16T02:22:04.520Z,2.58
2019-05-16T02:27:11.033Z,2.90
2019-05-16T02:32:17.579Z,2.60
2019-05-16T02:37:29.963Z,2.47
2019-05-16T02:42:32.582Z,2.33
2019-05-16T02:47:42.397Z,2.45
2019-05-16T02:52:51.403Z,2.98
2019-05-16T02:57:56.871Z,2.30
2019-05-16T03:03:04.941Z,2.83
2019-05-16T03:08:14.180Z,2.92
2019-05-16T03:13:22.774Z,2.55
2019-05-16T03:18:31.249Z,2.77
2019-05-16T03:23:41.904Z,3.00
2019-05-16T03:28:47.209Z,2.83
2019-05-16T03:33:59.649Z,3.00
2019-05-16T03:39:02.207Z,3.17
2019-05-16T03:44:11.252Z,2.75
2019-05-16T03:49:17.374Z,2.55
2019-05-16T03:54:23.841Z,2.58
2019-05-16T03:59:31.490Z,2.50
2019-05-16T04:04:41.484Z,2.40
2019-05-16T04:09:46.421Z,2.10
2019-05-16T04:14:52.877Z,2.47
2019-05-16T04:20:02.023Z,2.80
2019-05-16T04:25:11.344Z,2.22
2019-05-16T04:30:21.684Z,2.60
2019-05-16T04:35:26.855Z,2.47
2019-05-16T04:40:33.469Z,2.58
2019-05-16T04:45:41.416Z,2.20
2019-05-16T04:50:51.460Z,2.58
2019-05-16T04:55:56.702Z,2.77
2019-05-16T05:01:03.343Z,2.27
2019-05-16T05:06:11.368Z,2.50
2019-05-16T05:11:21.247Z,2.08
2019-05-16T05:16:26.285Z,2.10
2019-05-16T05:21:32.685Z,1.87
2019-05-16T05:26:41.483Z,2.27
2019-05-16T05:31:47.451Z,2.22
2019-05-16T05:36:53.907Z,2.40
2019-05-16T05:42:00.497Z,2.12
2019-05-16T05:47:06.946Z,2.65
2019-05-16T05:52:13.499Z,2.25
2019-05-16T05:57:20.906Z,2.33
2019-05-16T06:02:27.686Z,2.08
2019-05-16T06:07:34.304Z,2.77
2019-05-16T06:12:42.653Z,2.55
2019-05-16T06:17:50.827Z,2.15
2019-05-16T06:22:59.872Z,1.55
2019-05-16T06:28:05.863Z,2.58
2019-05-16T06:33:12.477Z,2.00
2019-05-16T06:38:21.030Z,2.20
2019-05-16T06:43:29.862Z,2.50
2019-05-16T06:48:35.621Z,2.45
2019-05-16T06:53:42.382Z,2.02
2019-05-16T06:58:51.722Z,1.75
2019-05-16T07:03:57.260Z,1.45
2019-05-16T07:09:05.905Z,1.50
2019-05-16T07:14:12.574Z,1.52
2019-05-16T07:19:20.735Z,1.35
2019-05-16T07:24:27.347Z,1.25
2019-05-16T07:29:33.732Z,1.40
2019-05-16T07:34:40.467Z,1.27
2019-05-16T07:39:47.201Z,1.20
2019-05-16T07:44:53.825Z,1.30
2019-05-16T07:50:00.445Z,1.30
2019-05-16T07:55:10.496Z,1.90
2019-05-16T08:00:16.150Z,1.62
2019-05-16T08:05:22.763Z,1.63
2019-05-16T08:10:37.965Z,1.30
2019-05-16T08:15:40.537Z,1.10
2019-05-16T08:20:46.135Z,1.00
2019-05-16T08:25:52.740Z,1.17
2019-05-16T08:31:00.817Z,1.12
2019-05-16T08:36:09.071Z,1.17
2019-05-16T08:46:24.308Z,0.98
2019-05-16T08:51:33.671Z,0.90
2019-05-16T08:56:44.395Z,1.00
2019-05-16T09:01:56.680Z,1.30
2019-05-16T09:07:02.000Z,1.25
2019-05-16T09:10:40.383Z,1.30
2019-05-16T09:12:07.928Z,1.50
2019-05-16T09:17:14.658Z,1.50
2019-05-16T09:22:21.234Z,1.65
2019-05-16T09:27:27.687Z,1.50
2019-05-16T09:32:36.633Z,1.42
2019-05-16T09:37:42.559Z,1.65
2019-05-16T09:42:49.059Z,1.22
2019-05-16T09:47:57.345Z,1.60
2019-05-16T09:53:04.398Z,1.55
2019-05-16T09:58:11.010Z,1.30
2019-05-16T10:03:22.337Z,1.50
2019-05-16T10:08:26.763Z,1.45
2019-05-16T10:13:33.604Z,1.35
2019-05-16T10:18:40.495Z,1.35
2019-05-16T10:23:47.132Z,1.22
2019-05-16T10:28:53.748Z,1.20
2019-05-16T10:34:00.364Z,1.20
2019-05-16T10:39:08.393Z,1.20
2019-05-16T10:44:17.582Z,1.22
2019-05-16T10:49:34.317Z,1.13
2019-05-16T10:54:31.687Z,1.70
2019-05-16T10:59:57.941Z,1.50
2019-05-16T11:04:59.338Z,1.47
2019-05-16T11:10:02.647Z,1.60
2019-05-16T11:15:03.322Z,1.70
2019-05-16T11:20:11.112Z,1.52
2019-05-16T11:25:27.965Z,1.20
2019-05-16T11:30:27.975Z,1.35
2019-05-16T11:35:37.835Z,1.10
2019-05-16T11:40:43.421Z,1.15
2019-05-16T11:45:50.194Z,1.40
2019-05-16T11:50:57.022Z,1.30
2019-05-16T11:56:03.716Z,1.60
2019-05-16T12:01:10.248Z,1.25
2019-05-16T12:06:17.227Z,1.20
2019-05-16T12:11:23.908Z,1.42
2019-05-16T12:16:30.449Z,1.32
2019-05-16T12:21:37.062Z,1.42
2019-05-16T12:26:43.514Z,1.50
2019-05-16T12:31:57.584Z,1.47
2019-05-16T12:37:17.429Z,1.30
2019-05-16T12:42:24.098Z,2.30
2019-05-16T12:47:30.665Z,1.55
2019-05-16T12:52:38.290Z,1.20
2019-05-16T12:57:48.887Z,1.30
2019-05-16T13:02:54.534Z,1.42
2019-05-16T13:08:01.235Z,1.65
2019-05-16T13:13:08.019Z,1.67
2019-05-16T13:18:16.747Z,1.92
2019-05-16T13:23:22.853Z,1.62
2019-05-16T13:28:29.456Z,1.90
2019-05-16T13:33:36.792Z,1.70
2019-05-16T13:38:43.415Z,2.22
2019-05-16T13:43:50.062Z,2.00
2019-05-16T13:48:58.362Z,1.95
2019-05-16T13:54:06.967Z,2.08
2019-05-16T13:59:13.346Z,2.08
2019-05-16T14:04:19.958Z,2.02
2019-05-16T14:09:26.894Z,2.22
2019-05-16T14:14:41.941Z,2.08
2019-05-16T14:19:43.974Z,2.35
2019-05-16T14:24:50.854Z,2.60
2019-05-16T14:29:58.378Z,3.47
2019-05-16T14:35:08.080Z,2.50
2019-05-16T14:40:14.019Z,2.95
2019-05-16T14:45:22.249Z,3.00
2019-05-16T14:50:29.005Z,2.83
2019-05-16T14:55:38.189Z,2.80
2019-05-16T15:00:48.467Z,2.47
2019-05-16T15:05:55.369Z,3.67
2019-05-16T15:11:01.025Z,4.03
2019-05-16T15:16:07.872Z,4.58
2019-05-16T15:21:17.700Z,4.00
2019-05-16T15:26:23.610Z,4.20
2019-05-16T15:31:30.136Z,4.17
2019-05-16T15:36:37.295Z,4.25
2019-05-16T15:41:44.054Z,6.58
2019-05-16T15:46:51.433Z,4.58
2019-05-16T15:51:58.748Z,4.03
2019-05-16T15:57:06.692Z,5.10
2019-05-16T16:02:13.640Z,4.95
2019-05-16T16:07:20.330Z,5.22
2019-05-16T16:12:26.942Z,5.58
2019-05-16T16:17:33.587Z,4.90
2019-05-16T16:22:40.109Z,5.85
2019-05-16T16:27:46.730Z,6.35
2019-05-16T16:32:53.384Z,5.83
2019-05-16T16:37:59.987Z,6.50
2019-05-16T16:43:08.030Z,6.42
2019-05-16T16:48:17.074Z,7.08
2019-05-16T16:53:23.992Z,7.85
2019-05-16T16:58:30.582Z,7.67
2019-05-16T17:03:38.373Z,7.55
2019-05-16T17:08:47.257Z,7.87
2019-05-16T17:13:53.445Z,7.85
2019-05-16T17:19:00.315Z,9.63
2019-05-16T17:24:06.991Z,9.90
2019-05-16T17:29:13.654Z,9.40
2019-05-16T17:34:20.827Z,10.20
2019-05-16T17:39:27.568Z,9.75
2019-05-16T17:44:37.491Z,10.13
2019-05-16T17:49:46.129Z,9.70
2019-05-16T17:54:53.492Z,9.85
2019-05-16T18:00:00.289Z,10.43
2019-05-16T18:05:08.980Z,9.45
2019-05-16T18:10:16.708Z,10.48
2019-05-16T18:15:24.037Z,10.25
2019-05-16T18:20:30.639Z,10.58
2019-05-16T18:26:02.022Z,10.98
2019-05-16T18:31:09.195Z,10.32
2019-05-16T18:36:16.996Z,9.30
2019-05-16T18:41:23.849Z,9.78
2019-05-16T18:46:31.359Z,10.45
2019-05-16T18:51:37.963Z,9.88
2019-05-16T18:56:44.530Z,10.15
2019-05-16T19:01:51.136Z,10.45
2019-05-16T19:06:59.679Z,10.35
2019-05-16T19:12:06.616Z,12.43
2019-05-16T19:17:22.129Z,12.00
2019-05-16T19:22:40.833Z,14.60
2019-05-16T19:27:47.813Z,14.05
2019-05-16T19:32:54.376Z,16.35
2019-05-16T19:38:01.011Z,20.77
2019-05-16T19:43:07.675Z,15.63
2019-05-16T19:48:14.306Z,11.60
2019-05-16T19:53:20.913Z,10.80
2019-05-16T19:58:27.546Z,12.33
2019-05-16T20:03:36.389Z,11.00
2019-05-16T20:08:42.540Z,12.60
2019-05-16T20:13:49.088Z,12.85
2019-05-16T20:18:56.196Z,12.93
2019-05-16T20:24:02.872Z,9.78
2019-05-16T20:29:09.411Z,10.40
2019-05-16T20:34:17.541Z,11.28
2019-05-16T20:39:26.674Z,11.20
2019-05-16T20:44:32.674Z,11.05
2019-05-16T20:49:39.288Z,10.85
2019-05-16T20:54:46.598Z,9.85
2019-05-16T20:59:53.896Z,12.05
2019-05-16T21:05:00.421Z,9.65
2019-05-16T21:10:08.324Z,11.05
2019-05-16T21:15:17.113Z,14.18
2019-05-16T21:20:23.370Z,15.80
2019-05-16T21:25:29.906Z,15.58
2019-05-16T21:30:36.893Z,17.70
2019-05-16T21:35:43.498Z,16.20
2019-05-16T21:40:50.227Z,16.57
2019-05-16T21:45:56.840Z,17.35
2019-05-16T21:51:03.493Z,16.62
2019-05-16T21:56:10.080Z,18.00
2019-05-16T22:01:21.478Z,18.60
2019-05-16T22:06:28.396Z,18.65
2019-05-16T22:11:36.965Z,18.90
2019-05-16T22:16:43.616Z,19.60
2019-05-16T22:21:50.392Z,20.17
2019-05-16T22:26:57.198Z,20.57
2019-05-16T22:32:03.791Z,19.85
2019-05-16T22:37:10.571Z,19.50
2019-05-16T22:42:17.642Z,19.90
2019-05-16T22:47:26.501Z,20.75
2019-05-16T22:52:32.583Z,20.43
2019-05-16T22:57:39.110Z,19.80
2019-05-16T23:02:45.730Z,18.90
2019-05-16T23:08:02.956Z,20.90
2019-05-16T23:13:00.624Z,21.10
2019-05-16T23:18:07.228Z,21.77
2019-05-16T23:23:13.867Z,21.37
2019-05-16T23:28:20.476Z,21.93
2019-05-16T23:33:27.045Z,21.80
2019-05-16T23:38:33.699Z,21.90
2019-05-16T23:43:40.275Z,22.10
2019-05-16T23:48:47.323Z,20.50
2019-05-16T23:53:53.821Z,22.05
2019-05-16T23:59:00.425Z,21.17
